Time;durP1;ratioP1;P1;durP2;ratioP2;P2;SDS_P1;SDS_P2;PMS_P1;PMS_P2;Temp;Humidity;BMP_temperature;BMP_pressure;BME280_temperature;BME280_humidity;BME280_pressure;Samples;Min_cycle;Max_cycle;Signal;HPM_P1;HPM_P2
2022/05/22 00:02:06;;;;;;;3.42;1.60;;;13.50;99.90;;;;;;5035253;28;20120;-75
2022/05/22 00:04:32;;;;;;;2.35;1.45;;;13.50;99.90;;;;;;5021101;28;20044;-76
2022/05/22 00:06:58;;;;;;;1.95;0.98;;;13.50;99.90;;;;;;5034660;28;20030;-74
2022/05/22 00:09:24;;;;;;;2.88;1.40;;;13.40;99.90;;;;;;5034637;28;20041;-74
2022/05/22 00:11:50;;;;;;;1.77;1.40;;;13.40;99.90;;;;;;5034114;28;20049;-75
2022/05/22 00:14:17;;;;;;;3.70;1.40;;;13.30;99.90;;;;;;5034290;28;20113;-75
2022/05/22 00:16:46;;;;;;;3.83;1.45;;;13.30;99.90;;;;;;5017987;28;20026;-75
2022/05/22 00:19:27;;;;;;;2.30;1.53;;;13.20;99.90;;;;;;5034776;28;20038;-75
2022/05/22 00:21:53;;;;;;;3.25;2.00;;;13.20;99.90;;;;;;5034161;28;20049;-75
2022/05/22 00:24:22;;;;;;;3.60;1.70;;;13.20;99.90;;;;;;5034509;28;20037;-76
2022/05/22 00:26:48;;;;;;;3.45;1.52;;;13.20;99.90;;;;;;5033581;28;20025;-75
2022/05/22 00:29:14;;;;;;;1.90;1.60;;;13.10;99.90;;;;;;5034392;28;20075;-75
2022/05/22 00:31:40;;;;;;;2.78;1.50;;;13.10;99.90;;;;;;5033169;28;20528;-75
2022/05/22 00:34:06;;;;;;;3.15;1.98;;;13.10;99.90;;;;;;5034404;28;20038;-75
2022/05/22 00:36:31;;;;;;;4.55;1.77;;;13.10;99.90;;;;;;5033176;28;20037;-75
2022/05/22 00:38:57;;;;;;;4.05;2.20;;;13.00;99.90;;;;;;5034318;28;20033;-75
2022/05/22 00:41:23;;;;;;;5.00;2.10;;;13.00;99.90;;;;;;5033991;28;20037;-75
2022/05/22 00:43:51;;;;;;;3.97;1.75;;;13.00;99.90;;;;;;5033116;28;20285;-75
2022/05/22 00:46:19;;;;;;;3.47;1.98;;;12.90;99.90;;;;;;5033968;28;20061;-75
2022/05/22 00:48:47;;;;;;;3.25;2.50;;;12.90;99.90;;;;;;5033250;28;20032;-77
2022/05/22 00:51:35;;;;;;;5.78;2.25;;;12.90;99.90;;;;;;5017738;28;20550;-75
2022/05/22 00:54:18;;;;;;;3.03;2.15;;;12.90;99.90;;;;;;5033800;28;20029;-75
2022/05/22 00:57:07;;;;;;;3.42;2.20;;;12.90;99.90;;;;;;5033191;28;20115;-75
2022/05/22 00:59:40;;;;;;;4.20;1.83;;;12.80;99.90;;;;;;5017844;28;20030;-75
2022/05/22 01:02:06;;;;;;;2.78;1.65;;;12.80;99.90;;;;;;5033688;28;20033;-75
2022/05/22 01:04:35;;;;;;;3.72;1.85;;;12.80;99.90;;;;;;5032651;28;20058;-74
2022/05/22 01:07:04;;;;;;;4.53;2.03;;;12.70;99.90;;;;;;5033099;28;20506;-75
2022/05/22 01:09:29;;;;;;;3.83;2.05;;;12.70;99.90;;;;;;5033261;28;20608;-74
2022/05/22 01:12:02;;;;;;;4.22;1.95;;;12.70;99.90;;;;;;5033105;28;20133;-75
2022/05/22 01:14:28;;;;;;;3.72;1.98;;;12.70;99.90;;;;;;5033620;28;20032;-74
2022/05/22 01:16:54;;;;;;;4.82;2.45;;;12.70;99.90;;;;;;5033364;28;20111;-75
2022/05/22 01:19:23;;;;;;;3.60;1.88;;;12.70;99.90;;;;;;5033108;28;20052;-76
2022/05/22 01:21:53;;;;;;;2.60;2.07;;;12.70;99.90;;;;;;5032470;28;20037;-76
2022/05/22 01:24:19;;;;;;;4.57;2.22;;;12.70;99.90;;;;;;5033499;28;20478;-76
2022/05/22 01:26:46;;;;;;;4.18;2.30;;;12.60;99.90;;;;;;5032684;28;20040;-76
2022/05/22 01:29:12;;;;;;;5.20;2.50;;;12.60;99.90;;;;;;5033592;28;20022;-76
2022/05/22 01:31:38;;;;;;;6.47;2.70;;;12.60;99.90;;;;;;5032357;28;20068;-76
2022/05/22 01:34:03;;;;;;;5.93;3.00;;;12.60;99.90;;;;;;5033524;28;20386;-77
2022/05/22 01:36:29;;;;;;;2.90;2.60;;;12.60;99.90;;;;;;5033375;28;20100;-76
2022/05/22 01:38:55;;;;;;;5.28;2.80;;;12.60;99.90;;;;;;5032272;28;20063;-76
2022/05/22 01:41:20;;;;;;;3.92;2.60;;;12.60;99.90;;;;;;5032960;28;20037;-76
2022/05/22 01:43:46;;;;;;;4.35;2.60;;;12.60;99.90;;;;;;5032377;28;20036;-76
2022/05/22 01:46:13;;;;;;;3.80;2.67;;;12.60;99.90;;;;;;5031939;28;20459;-76
2022/05/22 01:48:38;;;;;;;6.57;2.53;;;12.50;99.90;;;;;;5015793;28;20415;-76
2022/05/22 01:51:05;;;;;;;3.22;2.42;;;12.50;99.90;;;;;;5032784;28;20131;-76
2022/05/22 01:53:31;;;;;;;4.32;2.80;;;12.50;99.90;;;;;;5026303;28;20483;-75
2022/05/22 01:55:58;;;;;;;3.80;2.53;;;12.50;99.90;;;;;;5017146;28;20022;-76
2022/05/22 01:58:24;;;;;;;4.68;2.97;;;12.40;99.90;;;;;;5015085;28;20383;-75
2022/05/22 02:00:50;;;;;;;6.28;2.80;;;12.40;99.90;;;;;;5015888;28;20030;-75
2022/05/22 02:03:16;;;;;;;2.65;2.45;;;12.40;99.90;;;;;;5015044;28;20048;-75
2022/05/22 02:05:43;;;;;;;3.70;2.33;;;12.30;99.90;;;;;;5013423;28;20044;-76
2022/05/22 02:08:30;;;;;;;5.78;2.53;;;12.30;99.90;;;;;;5012145;28;20029;-75
2022/05/22 02:10:59;;;;;;;6.13;2.65;;;12.20;99.90;;;;;;5016006;28;20411;-76
2022/05/22 02:13:31;;;;;;;2.88;2.00;;;12.20;99.90;;;;;;5012637;28;20394;-75
2022/05/22 02:16:00;;;;;;;4.75;2.33;;;12.90;99.90;;;;;;5015716;28;20537;-75
2022/05/22 02:18:25;;;;;;;7.25;2.95;;;12.10;99.90;;;;;;5017815;28;20029;-75
2022/05/22 02:20:51;;;;;;;8.27;3.22;;;12.00;99.90;;;;;;5013007;28;20179;-77
2022/05/22 02:23:18;;;;;;;5.55;3.10;;;12.00;99.90;;;;;;5013665;28;20033;-76
2022/05/22 02:25:48;;;;;;;7.25;3.35;;;12.00;99.90;;;;;;5014782;28;20485;-76
2022/05/22 02:28:17;;;;;;;5.88;2.88;;;12.00;99.90;;;;;;5016864;28;20077;-77
2022/05/22 02:30:58;;;;;;;5.30;3.08;;;12.10;99.90;;;;;;5033623;28;20033;-76
2022/05/22 02:33:24;;;;;;;5.40;3.55;;;12.10;99.90;;;;;;5013792;28;20030;-78
2022/05/22 02:35:51;;;;;;;5.72;3.15;;;12.10;99.90;;;;;;5013860;28;20022;-75
2022/05/22 02:38:18;;;;;;;6.40;3.75;;;12.20;99.90;;;;;;5014635;28;20026;-76
2022/05/22 02:40:44;;;;;;;8.50;4.43;;;12.10;99.90;;;;;;5018003;28;20086;-75
2022/05/22 02:43:10;;;;;;;9.50;4.68;;;12.00;99.90;;;;;;5016020;28;20092;-76
2022/05/22 02:45:39;;;;;;;6.35;4.18;;;12.10;99.90;;;;;;5015668;28;20699;-75
2022/05/22 02:48:06;;;;;;;7.05;4.55;;;12.00;99.90;;;;;;5013869;28;20037;-76
2022/05/22 02:50:33;;;;;;;7.03;3.85;;;12.00;99.90;;;;;;5014735;28;20042;-74
2022/05/22 02:52:58;;;;;;;5.75;3.30;;;12.00;99.90;;;;;;5013040;28;20030;-76
2022/05/22 02:55:24;;;;;;;6.28;3.53;;;12.00;99.90;;;;;;5015619;28;20090;-75
2022/05/22 02:57:50;;;;;;;8.07;3.53;;;12.00;99.90;;;;;;5015596;28;20115;-76
2022/05/22 03:00:23;;;;;;;4.78;3.50;;;11.90;99.90;;;;;;5015677;28;20034;-76
2022/05/22 03:02:50;;;;;;;6.88;3.53;;;11.90;99.90;;;;;;5013978;28;20061;-76
2022/05/22 03:05:16;;;;;;;8.93;3.30;;;11.90;99.90;;;;;;5012388;28;20106;-75
2022/05/22 03:07:42;;;;;;;9.52;3.50;;;11.80;99.90;;;;;;5011404;28;20164;-76
2022/05/22 03:10:11;;;;;;;5.53;3.60;;;11.80;99.90;;;;;;5012785;28;20396;-75
2022/05/22 03:12:37;;;;;;;5.53;3.40;;;11.80;99.90;;;;;;5015668;28;20467;-75
2022/05/22 03:15:06;;;;;;;4.38;3.13;;;11.80;99.90;;;;;;5014919;28;20018;-75
2022/05/22 03:17:33;;;;;;;6.30;3.00;;;11.80;99.90;;;;;;5015469;28;20030;-75
2022/05/22 03:19:59;;;;;;;7.68;3.65;;;11.80;99.90;;;;;;5015711;28;20134;-74
2022/05/22 03:22:25;;;;;;;5.70;3.28;;;11.70;99.90;;;;;;5013130;28;20617;-74
2022/05/22 03:24:51;;;;;;;4.45;3.03;;;11.70;99.90;;;;;;5011246;28;20584;-74
2022/05/22 03:27:18;;;;;;;3.45;2.88;;;11.70;99.90;;;;;;5011872;28;20085;-74
2022/05/22 03:29:45;;;;;;;4.80;3.13;;;11.70;99.90;;;;;;5015453;28;20026;-75
2022/05/22 03:32:11;;;;;;;4.82;3.25;;;11.60;99.90;;;;;;5016217;28;20069;-74
2022/05/22 03:34:38;;;;;;;5.47;3.10;;;11.60;99.90;;;;;;5034870;28;20060;-74
2022/05/22 03:37:04;;;;;;;4.72;3.00;;;11.60;99.90;;;;;;5035395;28;20040;-75
2022/05/22 03:39:31;;;;;;;5.60;3.10;;;11.60;99.90;;;;;;5035423;28;20042;-74
2022/05/22 03:41:56;;;;;;;5.20;3.35;;;11.60;99.90;;;;;;5034264;28;20107;-74
2022/05/22 03:44:22;;;;;;;4.78;2.50;;;11.60;99.90;;;;;;5035124;28;20029;-75
2022/05/22 03:46:48;;;;;;;3.53;2.63;;;11.50;99.90;;;;;;5034738;28;20033;-74
2022/05/22 03:49:13;;;;;;;3.33;2.70;;;11.50;99.90;;;;;;5033731;28;20033;-75
2022/05/22 03:51:40;;;;;;;6.68;2.90;;;11.50;99.90;;;;;;5033952;28;20040;-74
2022/05/22 03:54:06;;;;;;;3.83;2.40;;;11.50;99.90;;;;;;5030824;28;20453;-74
2022/05/22 03:56:32;;;;;;;3.97;2.67;;;11.60;99.90;;;;;;5035066;28;20465;-75
2022/05/22 03:58:58;;;;;;;5.30;2.72;;;11.50;99.90;;;;;;5034800;28;20029;-75
2022/05/22 04:01:24;;;;;;;6.03;2.88;;;11.60;99.90;;;;;;5035142;28;20159;-75
2022/05/22 04:03:49;;;;;;;2.90;2.33;;;11.50;99.90;;;;;;5034082;28;20359;-75
2022/05/22 04:06:15;;;;;;;3.75;2.30;;;11.60;99.90;;;;;;5034742;28;20155;-74
2022/05/22 04:08:41;;;;;;;5.43;3.20;;;11.60;99.90;;;;;;5034257;28;20025;-75
2022/05/22 04:11:16;;;;;;;3.58;2.72;;;11.50;99.90;;;;;;5034259;28;20057;-75
2022/05/22 04:13:42;;;;;;;5.82;2.20;;;11.60;99.90;;;;;;5017570;28;20060;-75
2022/05/22 04:16:08;;;;;;;4.72;2.78;;;11.60;99.90;;;;;;5035315;28;20084;-75
2022/05/22 04:18:34;;;;;;;4.35;3.10;;;11.70;99.90;;;;;;5034615;28;20382;-75
2022/05/22 04:21:00;;;;;;;6.50;2.80;;;11.70;99.90;;;;;;5034346;28;20119;-76
2022/05/22 04:26:11;;;;;;;3.22;2.35;;;11.70;99.90;;;;;;5034516;28;20073;-76
2022/05/22 04:28:38;;;;;;;5.63;2.83;;;11.80;99.90;;;;;;5033622;28;20160;-77
2022/05/22 04:31:04;;;;;;;3.50;2.65;;;11.80;99.90;;;;;;5034830;28;20172;-80
2022/05/22 04:33:31;;;;;;;4.75;2.90;;;11.90;99.90;;;;;;5033505;28;20030;-79
2022/05/22 04:35:58;;;;;;;3.88;2.80;;;12.00;99.90;;;;;;5033600;28;20026;-76
2022/05/22 04:38:24;;;;;;;4.63;3.30;;;12.00;99.90;;;;;;5033420;28;20048;-75
2022/05/22 04:41:07;;;;;;;4.25;3.22;;;12.10;99.90;;;;;;5017359;28;20033;-75
2022/05/22 04:43:33;;;;;;;6.63;3.70;;;12.20;99.90;;;;;;5033487;28;20059;-74
2022/05/22 04:45:59;;;;;;;4.93;3.45;;;12.30;99.90;;;;;;5033878;28;20041;-75
2022/05/22 04:48:27;;;;;;;8.75;3.30;;;12.40;99.90;;;;;;5033688;28;20541;-73
2022/05/22 04:50:53;;;;;;;4.35;3.67;;;12.40;99.90;;;;;;5032789;28;20037;-74
2022/05/22 04:53:23;;;;;;;7.38;3.25;;;12.50;99.90;;;;;;5031385;28;20064;-75
2022/05/22 04:55:48;;;;;;;5.30;3.47;;;12.60;99.90;;;;;;5033129;28;20025;-73
2022/05/22 04:58:16;;;;;;;5.45;3.38;;;12.70;99.90;;;;;;5033886;28;20032;-72
2022/05/22 05:00:42;;;;;;;8.10;3.20;;;12.70;99.90;;;;;;5016838;28;20092;-79
2022/05/22 05:03:08;;;;;;;3.58;3.28;;;12.80;99.90;;;;;;5035002;28;20035;-79
2022/05/22 05:05:33;;;;;;;4.53;3.00;;;12.90;99.90;;;;;;5034605;28;20508;-77
2022/05/22 05:08:00;;;;;;;3.78;2.80;;;12.90;99.90;;;;;;5033312;28;20479;-83
2022/05/22 05:10:26;;;;;;;5.50;3.47;;;12.90;99.90;;;;;;5033715;28;20053;-83
2022/05/22 05:12:51;;;;;;;4.35;3.08;;;12.90;99.90;;;;;;5033501;28;20435;-76
2022/05/22 05:15:19;;;;;;;6.20;3.40;;;12.90;99.90;;;;;;5033655;28;20175;-75
2022/05/22 05:17:46;;;;;;;6.40;3.30;;;13.00;99.90;;;;;;5033274;28;20036;-86
2022/05/22 05:20:14;;;;;;;4.07;3.28;;;13.10;99.90;;;;;;5034606;28;20548;-86
2022/05/22 05:22:40;;;;;;;4.65;3.00;;;13.10;99.90;;;;;;5034637;28;20033;-80
2022/05/22 05:25:06;;;;;;;4.72;3.22;;;13.20;99.90;;;;;;5033868;28;20044;-79
2022/05/22 05:27:32;;;;;;;5.18;3.10;;;13.40;99.90;;;;;;5033247;28;20359;-81
2022/05/22 05:29:58;;;;;;;4.65;2.95;;;13.50;99.90;;;;;;5033012;28;20095;-79
2022/05/22 05:32:24;;;;;;;4.63;3.25;;;13.70;99.90;;;;;;5033093;28;20422;-81
2022/05/22 05:34:57;;;;;;;5.70;2.88;;;13.70;99.90;;;;;;5033362;28;20221;-80
2022/05/22 05:37:23;;;;;;;4.97;2.95;;;13.90;99.90;;;;;;5033853;28;20030;-79
2022/05/22 05:39:49;;;;;;;3.97;2.80;;;13.90;99.90;;;;;;5032704;28;20038;-79
2022/05/22 05:42:15;;;;;;;4.20;2.60;;;14.00;99.90;;;;;;5033971;28;20029;-83
2022/05/22 05:44:41;;;;;;;4.18;2.47;;;14.20;99.90;;;;;;5033127;28;20024;-80
2022/05/22 05:47:08;;;;;;;6.45;2.60;;;14.30;99.90;;;;;;5034007;28;20025;-85
2022/05/22 05:49:36;;;;;;;5.65;3.10;;;14.40;99.90;;;;;;5033818;28;20039;-81
2022/05/22 05:52:03;;;;;;;3.78;2.85;;;14.70;99.90;;;;;;5033043;28;20451;-81
2022/05/22 05:54:29;;;;;;;5.40;2.92;;;14.80;99.90;;;;;;5029788;28;20037;-80
2022/05/22 05:56:54;;;;;;;4.07;2.67;;;14.90;99.90;;;;;;5032169;28;20064;-83
2022/05/22 05:59:20;;;;;;;5.03;2.78;;;15.00;99.90;;;;;;5033351;28;20096;-82
2022/05/22 06:01:46;;;;;;;4.68;2.85;;;15.20;99.90;;;;;;5031168;28;20030;-79
2022/05/22 06:04:12;;;;;;;5.00;2.47;;;15.40;99.90;;;;;;5013870;28;20034;-82
2022/05/22 06:06:38;;;;;;;4.32;2.42;;;15.60;99.90;;;;;;5031500;28;20029;-80
2022/05/22 06:09:03;;;;;;;6.97;3.15;;;15.80;99.90;;;;;;5033328;28;20032;-77
2022/05/22 06:11:29;;;;;;;7.30;2.80;;;15.90;99.90;;;;;;5031699;28;20061;-78
2022/05/22 06:13:56;;;;;;;3.63;2.75;;;16.10;99.90;;;;;;5015345;28;20032;-82
2022/05/22 06:16:23;;;;;;;3.35;2.45;;;16.20;99.90;;;;;;5032654;28;20470;-80
2022/05/22 06:18:48;;;;;;;8.50;2.80;;;16.20;99.90;;;;;;5031865;28;20033;-80
2022/05/22 06:21:19;;;;;;;5.80;2.95;;;16.30;99.90;;;;;;5032601;28;20035;-79
2022/05/22 06:23:45;;;;;;;3.97;2.33;;;16.40;99.90;;;;;;5031120;28;20026;-73
2022/05/22 06:26:13;;;;;;;3.88;2.17;;;16.50;99.90;;;;;;5032219;28;20025;-78
2022/05/22 06:28:39;;;;;;;6.07;2.30;;;16.50;99.90;;;;;;5031519;28;20147;-72
2022/05/22 06:31:06;;;;;;;6.22;2.67;;;16.60;99.90;;;;;;5031477;28;20041;-76
2022/05/22 06:33:33;;;;;;;6.20;2.60;;;16.60;99.90;;;;;;5030907;28;20033;-75
2022/05/22 06:35:59;;;;;;;4.03;2.05;;;16.70;99.90;;;;;;5031004;28;20025;-72
2022/05/22 06:41:10;;;;;;;3.30;2.10;;;16.90;99.90;;;;;;5031994;28;20076;-75
2022/05/22 06:43:36;;;;;;;4.97;2.38;;;17.10;99.90;;;;;;5024753;28;20048;-74
2022/05/22 06:46:03;;;;;;;4.22;2.60;;;17.30;99.90;;;;;;5028466;28;20447;-74
2022/05/22 06:48:29;;;;;;;6.80;2.28;;;17.50;99.90;;;;;;5021124;28;20034;-73
2022/05/22 06:50:55;;;;;;;4.05;1.80;;;17.60;99.90;;;;;;5011540;28;20087;-75
2022/05/22 06:53:21;;;;;;;4.85;2.67;;;17.70;99.90;;;;;;5017116;28;20029;-75
2022/05/22 06:55:47;;;;;;;5.47;2.28;;;17.70;99.90;;;;;;5031560;28;20034;-73
2022/05/22 06:58:12;;;;;;;4.68;2.28;;;17.70;99.90;;;;;;5032805;28;20029;-74
2022/05/22 07:00:38;;;;;;;4.50;1.90;;;17.70;99.90;;;;;;5031359;28;20030;-74
2022/05/22 07:03:04;;;;;;;5.15;2.15;;;17.90;99.90;;;;;;5030326;28;20490;-70
2022/05/22 07:05:30;;;;;;;3.47;2.20;;;18.00;99.90;;;;;;5030946;28;20584;-69
2022/05/22 07:07:56;;;;;;;4.20;2.13;;;18.20;99.90;;;;;;5029105;28;20029;-68
2022/05/22 07:11:38;;;;;;;2.00;1.85;;;18.30;99.90;;;;;;5017686;28;20046;-70
2022/05/22 07:13:07;;;;;;;7.40;2.10;;;18.40;99.90;;;;;;5012119;28;20034;-69
2022/05/22 07:15:33;;;;;;;3.88;2.40;;;18.50;99.90;;;;;;5015973;28;20026;-69
2022/05/22 07:17:59;;;;;;;7.25;2.28;;;18.60;99.90;;;;;;5014381;28;20792;-69
2022/05/22 07:20:24;;;;;;;6.40;2.53;;;18.80;99.90;;;;;;5015251;28;20104;-70
2022/05/22 07:22:50;;;;;;;4.97;2.20;;;18.90;99.90;;;;;;5014712;28;20053;-69
2022/05/22 07:25:15;;;;;;;4.35;1.80;;;19.00;99.90;;;;;;5011394;28;20022;-70
2022/05/22 07:27:41;;;;;;;3.38;2.03;;;18.90;99.90;;;;;;5010675;28;20024;-70
2022/05/22 07:30:07;;;;;;;3.85;2.22;;;18.90;99.90;;;;;;5016847;28;20025;-75
2022/05/22 07:32:33;;;;;;;3.25;1.88;;;18.80;99.90;;;;;;5029818;28;20029;-75
2022/05/22 07:34:59;;;;;;;5.25;1.80;;;18.90;99.90;;;;;;5031595;28;20030;-75
2022/05/22 07:37:25;;;;;;;4.82;2.22;;;19.10;99.90;;;;;;5034023;28;20034;-75
2022/05/22 07:39:51;;;;;;;4.53;1.77;;;19.10;99.90;;;;;;5037617;28;20113;-74
2022/05/22 07:42:17;;;;;;;2.75;1.80;;;19.30;99.80;;;;;;5020452;28;20061;-73
2022/05/22 07:44:42;;;;;;;5.50;1.70;;;19.40;99.30;;;;;;5015148;28;20037;-72
2022/05/22 07:47:08;;;;;;;2.75;1.80;;;19.60;98.90;;;;;;5012339;28;20045;-74
2022/05/22 07:52:20;;;;;;;3.63;1.95;;;19.80;97.90;;;;;;5014274;28;20077;-73
2022/05/22 07:54:45;;;;;;;5.28;1.83;;;19.90;97.60;;;;;;5011306;28;20029;-75
2022/05/22 07:57:11;;;;;;;3.70;1.73;;;20.10;97.90;;;;;;5013188;28;20030;-74
2022/05/22 07:59:38;;;;;;;7.13;1.92;;;20.10;96.70;;;;;;5013443;28;20360;-72
2022/05/22 08:02:05;;;;;;;2.65;1.80;;;20.10;95.70;;;;;;5015407;28;20061;-73
2022/05/22 08:04:32;;;;;;;2.75;1.52;;;20.10;96.20;;;;;;5012988;28;20467;-73
2022/05/22 08:06:57;;;;;;;5.35;1.73;;;20.10;96.30;;;;;;5010379;28;20021;-75
2022/05/22 08:09:23;;;;;;;3.88;1.90;;;20.20;95.90;;;;;;5030519;28;20037;-75
2022/05/22 08:11:49;;;;;;;4.45;1.90;;;20.20;95.90;;;;;;5029936;28;20049;-71
2022/05/22 08:14:15;;;;;;;3.95;1.77;;;20.30;95.00;;;;;;5030710;28;20120;-72
2022/05/22 08:16:42;;;;;;;3.30;1.30;;;20.40;96.70;;;;;;5030045;28;20113;-71
2022/05/22 08:19:08;;;;;;;1.90;1.27;;;20.50;94.70;;;;;;5030878;28;20030;-72
2022/05/22 08:21:33;;;;;;;4.07;1.52;;;20.60;93.80;;;;;;5034183;28;20102;-72
2022/05/22 08:23:59;;;;;;;2.83;1.80;;;20.70;93.60;;;;;;5026430;28;20161;-71
2022/05/22 08:26:27;;;;;;;3.92;1.73;;;20.80;92.90;;;;;;5034273;28;20116;-71
2022/05/22 08:28:53;;;;;;;5.53;1.60;;;20.80;92.70;;;;;;5035927;28;20413;-73
2022/05/22 08:31:19;;;;;;;2.75;1.60;;;20.90;92.40;;;;;;5033456;28;20030;-69
2022/05/22 08:33:44;;;;;;;2.80;1.95;;;20.90;93.20;;;;;;5032966;28;20036;-71
2022/05/22 08:36:10;;;;;;;4.10;1.58;;;21.10;91.70;;;;;;5033852;28;20048;-69
2022/05/22 08:38:36;;;;;;;3.45;1.63;;;21.20;91.60;;;;;;5033907;28;20060;-69
2022/05/22 08:41:13;;;;;;;2.20;1.20;;;21.20;91.40;;;;;;5033010;28;20620;-68
2022/05/22 08:44:09;;;;;;;7.13;2.10;;;21.40;90.50;;;;;;5033584;28;20068;-69
2022/05/22 08:47:01;;;;;;;4.88;1.63;;;21.40;89.50;;;;;;5034387;28;20382;-76
2022/05/22 08:49:39;;;;;;;5.82;1.27;;;21.50;89.80;;;;;;5024879;28;20496;-74
2022/05/22 08:52:42;;;;;;;3.17;1.45;;;21.50;88.10;;;;;;5033227;28;20416;-73
2022/05/22 09:01:17;;;;;;;1.58;1.10;;;21.90;83.50;;;;;;5033502;28;20131;-74
2022/05/22 09:03:55;;;;;;;2.40;1.33;;;21.90;83.00;;;;;;5033366;28;20053;-73
2022/05/22 09:06:32;;;;;;;5.40;1.20;;;21.90;83.80;;;;;;5033793;28;20048;-78
2022/05/22 09:08:58;;;;;;;2.25;1.17;;;22.00;80.90;;;;;;5032517;28;20056;-75
2022/05/22 09:11:50;;;;;;;3.75;1.50;;;22.00;81.10;;;;;;5033612;28;20064;-74
2022/05/22 09:14:24;;;;;;;2.72;1.23;;;22.00;80.60;;;;;;5004803;28;20046;-75
2022/05/22 09:17:17;;;;;;;3.25;1.70;;;21.90;79.80;;;;;;5032368;28;20138;-75
2022/05/22 09:20:09;;;;;;;2.15;1.10;;;22.00;78.60;;;;;;5033156;28;20025;-76
2022/05/22 09:23:02;;;;;;;1.98;1.63;;;22.00;79.70;;;;;;5032163;28;20116;-77
2022/05/22 09:25:55;;;;;;;3.22;1.48;;;21.90;78.60;;;;;;5032968;28;20036;-77
2022/05/22 09:28:34;;;;;;;3.78;1.63;;;21.90;79.50;;;;;;5032726;28;20127;-73
2022/05/22 09:31:18;;;;;;;2.37;0.93;;;22.00;79.10;;;;;;5030215;28;20506;-76
2022/05/22 09:33:44;;;;;;;2.08;1.17;;;22.10;78.20;;;;;;5032846;28;20048;-71
2022/05/22 09:36:34;;;;;;;1.52;1.05;;;22.30;77.20;;;;;;5032052;28;20065;-74
2022/05/22 09:39:23;;;;;;;3.05;1.48;;;22.40;75.80;;;;;;5032111;28;20026;-74
2022/05/22 09:42:11;;;;;;;2.35;1.27;;;22.60;75.80;;;;;;5014063;28;20030;-75
2022/05/22 09:45:20;;;;;;;3.03;1.10;;;22.70;75.20;;;;;;4995494;28;20030;-73
2022/05/22 09:48:00;;;;;;;3.95;0.88;;;23.00;74.20;;;;;;5010774;28;20376;-74
2022/05/22 09:50:40;;;;;;;2.20;1.20;;;23.20;72.70;;;;;;5012670;28;20037;-75
2022/05/22 09:53:31;;;;;;;2.30;1.15;;;23.30;73.60;;;;;;4998061;28;20026;-75
2022/05/22 09:56:11;;;;;;;3.60;1.17;;;23.40;72.80;;;;;;5000324;28;20030;-74
2022/05/22 09:59:09;;;;;;;4.40;1.08;;;23.50;72.20;;;;;;4993248;28;20034;-75
2022/05/22 10:01:44;;;;;;;3.83;1.35;;;23.90;71.90;;;;;;5007943;28;20116;-75
2022/05/22 10:04:32;;;;;;;0.93;0.90;;;24.10;71.30;;;;;;5008313;28;20743;-75
2022/05/22 10:06:58;;;;;;;3.45;1.50;;;24.30;69.90;;;;;;5007781;28;20025;-75
2022/05/22 10:09:49;;;;;;;3.55;1.40;;;24.40;68.20;;;;;;5003446;28;20091;-75
2022/05/22 10:12:26;;;;;;;3.72;1.35;;;24.30;68.30;;;;;;5011799;28;20050;-78
2022/05/22 10:15:07;;;;;;;2.10;1.10;;;24.20;68.80;;;;;;5003528;28;20122;-75
2022/05/22 10:17:58;;;;;;;2.10;1.30;;;24.10;69.00;;;;;;5004094;28;20031;-80
2022/05/22 10:20:50;;;;;;;5.05;1.33;;;24.00;68.90;;;;;;4994032;28;20030;-75
2022/05/22 10:23:34;;;;;;;2.83;1.23;;;24.00;69.30;;;;;;4996264;28;20477;-80
2022/05/22 10:26:11;;;;;;;3.08;1.50;;;24.10;69.10;;;;;;5010081;28;20033;-73
2022/05/22 10:28:44;;;;;;;2.63;1.23;;;24.30;70.70;;;;;;5001136;28;20030;-74
2022/05/22 10:31:56;;;;;;;1.88;1.23;;;24.40;68.00;;;;;;4991836;28;20045;-74
2022/05/22 10:34:31;;;;;;;3.83;1.58;;;24.50;67.30;;;;;;5025735;28;20044;-71
2022/05/22 10:37:03;;;;;;;2.45;1.05;;;24.70;66.90;;;;;;5019980;28;20120;-84
2022/05/22 10:39:28;;;;;;;2.83;1.30;;;24.80;66.80;;;;;;5032597;28;20102;-79
2022/05/22 10:42:45;;;;;;;3.28;1.38;;;25.10;66.70;;;;;;5031347;28;20111;-79
2022/05/22 10:45:35;;;;;;;4.72;1.50;;;25.20;65.10;;;;;;5027280;28;20558;-81
2022/05/22 10:48:19;;;;;;;3.70;1.25;;;25.20;65.30;;;;;;5026504;28;20176;-85
2022/05/22 10:50:55;;;;;;;4.72;1.38;;;25.30;64.90;;;;;;5031934;28;20045;-88
2022/05/22 10:53:24;;;;;;;2.70;1.02;;;25.40;64.20;;;;;;5027515;28;20105;-87
2022/05/22 10:55:52;;;;;;;2.13;1.40;;;25.10;64.60;;;;;;5015517;28;20114;-81
2022/05/22 10:58:28;;;;;;;4.38;1.70;;;25.10;64.20;;;;;;5015211;28;20493;-86
2022/05/22 11:01:04;;;;;;;2.75;1.40;;;25.20;64.20;;;;;;5012327;28;20034;-79
2022/05/22 11:03:35;;;;;;;2.13;1.15;;;25.30;64.20;;;;;;5017854;28;20499;-83
2022/05/22 11:06:16;;;;;;;5.18;1.42;;;25.40;64.50;;;;;;5015692;28;20029;-84
2022/05/22 11:08:48;;;;;;;2.25;1.52;;;25.50;62.90;;;;;;5031863;28;20044;-84
2022/05/22 11:11:30;;;;;;;3.35;1.13;;;25.60;64.10;;;;;;5029982;28;20174;-82
2022/05/22 11:14:14;;;;;;;2.50;1.38;;;25.80;67.80;;;;;;5031468;28;20037;-83
2022/05/22 11:16:41;;;;;;;1.85;1.20;;;25.70;63.30;;;;;;5030796;28;20108;-71
2022/05/22 11:19:21;;;;;;;4.95;1.52;;;25.70;62.10;;;;;;5030263;28;20424;-72
2022/05/22 11:22:18;;;;;;;2.08;1.10;;;26.00;90.00;;;;;;5015307;28;20033;-72
2022/05/22 11:25:21;;;;;;;2.70;1.42;;;26.10;77.80;;;;;;5007660;28;20037;-71
2022/05/22 11:28:04;;;;;;;1.73;1.20;;;26.30;61.60;;;;;;5016690;28;20030;-72
2022/05/22 11:30:50;;;;;;;2.15;1.17;;;26.50;60.90;;;;;;5018753;28;20032;-72
2022/05/22 11:34:01;;;;;;;3.28;1.40;;;26.70;59.70;;;;;;5022006;28;20109;-72
2022/05/22 11:36:52;;;;;;;5.10;1.67;;;26.80;60.40;;;;;;5014630;28;20045;-72
2022/05/22 11:39:36;;;;;;;2.92;1.38;;;27.00;58.20;;;;;;5030500;28;20029;-72
2022/05/22 11:42:23;;;;;;;3.20;1.20;;;27.00;58.70;;;;;;5030103;28;20112;-71
2022/05/22 11:45:19;;;;;;;3.20;1.60;;;26.90;58.00;;;;;;5030908;28;20040;-71
2022/05/22 11:48:26;;;;;;;2.67;1.27;;;26.70;58.90;;;;;;5029331;28;20032;-71
2022/05/22 11:51:04;;;;;;;1.45;1.20;;;26.70;60.00;;;;;;5024659;28;20042;-71
2022/05/22 11:53:35;;;;;;;2.50;1.30;;;27.00;61.60;;;;;;5015400;28;20025;-71
2022/05/22 11:56:35;;;;;;;1.83;1.25;;;27.20;63.90;;;;;;5033616;28;20034;-72
2022/05/22 11:59:17;;;;;;;1.77;1.27;;;27.30;67.60;;;;;;5033749;28;20052;-72
2022/05/22 12:02:03;;;;;;;3.03;1.48;;;27.10;70.70;;;;;;5034169;28;20095;-72
2022/05/22 12:04:49;;;;;;;1.98;1.40;;;27.30;69.70;;;;;;5034083;28;20044;-72
2022/05/22 12:07:23;;;;;;;2.13;1.55;;;27.40;70.50;;;;;;5032366;28;20049;-72
2022/05/22 12:10:01;;;;;;;4.30;1.25;;;27.40;69.00;;;;;;5034063;28;20037;-72
2022/05/22 12:12:54;;;;;;;1.83;1.60;;;27.30;80.60;;;;;;5034068;28;20448;-72
2022/05/22 12:15:51;;;;;;;1.95;1.33;;;27.40;77.80;;;;;;5033610;28;20057;-72
2022/05/22 12:18:21;;;;;;;5.00;1.38;;;;;;;;;;5032305;28;20041;-72
2022/05/22 12:20:47;;;;;;;;;;;;;;;;;;5034760;28;20084;-72
2022/05/22 12:23:15;;;;;;;3.22;1.23;;;;;;;;;;5032134;28;19917;-72
2022/05/22 12:25:44;;;;;;;2.35;1.45;;;;;;;;;;5034096;28;20029;-72
2022/05/22 12:28:34;;;;;;;2.05;1.30;;;;;;;;;;5032347;28;20026;-72
2022/05/22 12:31:02;;;;;;;2.45;1.23;;;;;;;;;;5026998;28;20080;-72
2022/05/22 12:33:31;;;;;;;2.38;1.38;;;;;;;;;;5033801;28;20021;-72
2022/05/22 12:35:58;;;;;;;1.40;1.20;;;;;;;;;;5033134;28;20049;-83
2022/05/22 12:38:24;;;;;;;2.20;1.45;;;;;;;;;;5033713;28;20080;-77
2022/05/22 12:40:59;;;;;;;2.80;1.27;;;;;;;;;;5033995;28;20033;-73
2022/05/22 12:43:25;;;;;;;2.47;1.40;;;;;;;;;;5033922;28;20028;-76
2022/05/22 12:46:11;;;;;;;2.42;1.70;;;;;;;;;;5033840;28;20065;-73
2022/05/22 12:48:38;;;;;;;1.92;1.10;;;;;;;;;;5034137;28;20442;-74
2022/05/22 12:51:19;;;;;;;3.20;1.40;;;;;;;;;;5032827;28;20034;-74
2022/05/22 12:53:47;;;;;;;1.60;1.10;;;;;;;;;;5032316;28;20025;-76
2022/05/22 12:56:39;;;;;;;2.72;1.42;;;;;;;;;;5033048;28;20413;-75
2022/05/22 12:59:17;;;;;;;3.38;1.10;;;;;;;;;;5032424;28;20042;-73
2022/05/22 13:01:45;;;;;;;1.70;1.60;;;;;;;;;;5030872;28;20042;-74
2022/05/22 13:04:18;;;;;;;2.88;1.60;;;;;;;;;;5032355;28;20057;-74
2022/05/22 13:06:50;;;;;;;3.15;1.20;;;;;;;;;;5033205;28;20032;-73
2022/05/22 13:09:25;;;;;;;2.10;1.35;;;;;;;;;;5032224;28;20080;-74
2022/05/22 13:12:15;;;;;;;2.13;1.52;;;;;;;;;;5033162;28;20143;-75
2022/05/22 13:14:41;;;;;;;2.72;1.73;;;;;;;;;;5020035;28;20042;-74
2022/05/22 13:17:09;;;;;;;2.13;1.20;;;;;;;;;;5032203;28;20053;-77
2022/05/22 13:19:35;;;;;;;2.67;1.27;;;;;;;;;;5032999;28;20425;-76
2022/05/22 13:22:11;;;;;;;2.22;1.40;;;;;;;;;;5032628;28;20025;-76
2022/05/22 13:24:38;;;;;;;2.50;1.42;;;;;;;;;;5033200;28;20033;-75
2022/05/22 13:27:19;;;;;;;2.72;1.33;;;;;;;;;;5032157;28;20032;-73
2022/05/22 13:29:48;;;;;;;2.45;1.40;;;;;;;;;;5033089;28;20382;-75
2022/05/22 13:32:18;;;;;;;2.80;1.33;;;;;;;;;;5029691;28;20041;-73
2022/05/22 13:34:48;;;;;;;2.55;1.27;;;;;;;;;;5028907;28;20029;-73
2022/05/22 13:37:22;;;;;;;2.13;1.10;;;;;;;;;;5029663;28;20025;-73